createdAt,value
2023-05-15T00:00:08.269Z,15.70
2023-05-15T00:02:35.626Z,15.60
2023-05-15T00:05:03.124Z,15.60
2023-05-15T00:07:30.795Z,15.60
2023-05-15T00:09:58.076Z,15.60
2023-05-15T00:12:25.396Z,15.60
2023-05-15T00:14:52.767Z,15.50
2023-05-15T00:17:20.035Z,15.20
2023-05-15T00:19:47.320Z,15.50
2023-05-15T00:22:14.602Z,15.50
2023-05-15T00:24:41.905Z,15.40
2023-05-15T00:27:09.178Z,15.30
2023-05-15T00:29:36.451Z,15.20
2023-05-15T00:32:03.836Z,15.10
2023-05-15T00:34:31.144Z,15.00
2023-05-15T00:36:59.321Z,14.90
2023-05-15T00:39:26.811Z,14.90
2023-05-15T00:41:55.019Z,14.90
2023-05-15T00:44:22.477Z,14.90
2023-05-15T00:46:50.949Z,14.80
2023-05-15T00:49:18.536Z,14.90
2023-05-15T00:51:45.812Z,14.80
2023-05-15T00:54:13.290Z,14.80
2023-05-15T00:56:41.745Z,14.80
2023-05-15T00:59:10.060Z,14.90
2023-05-15T01:01:37.451Z,14.80
2023-05-15T01:04:04.885Z,14.80
2023-05-15T01:06:32.209Z,14.80
2023-05-15T01:09:02.270Z,14.80
2023-05-15T01:11:36.309Z,14.80
2023-05-15T01:14:05.427Z,14.80
2023-05-15T01:16:33.385Z,14.80
2023-05-15T01:19:00.750Z,14.70
2023-05-15T01:21:30.890Z,14.70
2023-05-15T01:24:01.744Z,14.70
2023-05-15T01:26:32.094Z,14.60
2023-05-15T01:29:04.388Z,14.50
2023-05-15T01:31:32.998Z,14.50
2023-05-15T01:34:03.541Z,14.40
2023-05-15T01:36:39.131Z,14.40
2023-05-15T01:39:07.143Z,14.40
2023-05-15T01:41:51.254Z,14.40
2023-05-15T01:44:30.995Z,14.40
2023-05-15T01:47:00.033Z,14.30
2023-05-15T01:49:28.140Z,14.30
2023-05-15T01:52:01.738Z,14.30
2023-05-15T01:54:29.785Z,14.30
2023-05-15T01:56:57.550Z,14.30
2023-05-15T01:59:25.208Z,14.30
2023-05-15T02:01:52.625Z,14.20
2023-05-15T02:04:20.350Z,14.20
2023-05-15T02:06:50.317Z,14.20
2023-05-15T02:09:18.737Z,14.20
2023-05-15T02:11:46.415Z,14.20
2023-05-15T02:14:14.929Z,14.10
2023-05-15T02:16:42.409Z,14.10
2023-05-15T02:19:10.152Z,14.10
2023-05-15T02:21:38.193Z,14.00
2023-05-15T02:24:05.566Z,14.00
2023-05-15T02:26:35.563Z,14.00
2023-05-15T02:29:21.462Z,13.90
2023-05-15T02:31:48.801Z,13.80
2023-05-15T02:34:26.965Z,13.80
2023-05-15T02:36:54.576Z,13.80
2023-05-15T02:39:23.606Z,13.80
2023-05-15T02:41:52.367Z,13.80
2023-05-15T02:44:19.886Z,13.80
2023-05-15T02:46:47.825Z,13.80
2023-05-15T02:49:15.602Z,13.80
2023-05-15T02:51:43.017Z,13.70
2023-05-15T02:54:10.441Z,13.70
2023-05-15T02:56:37.689Z,13.70
2023-05-15T02:59:05.177Z,13.70
2023-05-15T03:01:32.501Z,13.70
2023-05-15T03:03:59.861Z,13.70
2023-05-15T03:06:27.283Z,13.60
2023-05-15T03:08:54.510Z,13.60
2023-05-15T03:11:22.059Z,13.50
2023-05-15T03:13:49.324Z,13.50
2023-05-15T03:16:16.742Z,13.40
2023-05-15T03:18:44.158Z,13.30
2023-05-15T03:21:11.895Z,13.20
2023-05-15T03:23:39.123Z,13.10
2023-05-15T03:26:06.407Z,13.10
2023-05-15T03:28:33.759Z,12.90
2023-05-15T03:31:01.074Z,12.90
2023-05-15T03:33:28.319Z,12.80
2023-05-15T03:35:55.643Z,12.70
2023-05-15T03:38:22.991Z,12.70
2023-05-15T03:40:51.272Z,12.60
2023-05-15T03:43:18.635Z,12.50
2023-05-15T03:45:45.876Z,12.50
2023-05-15T03:48:13.111Z,12.40
2023-05-15T03:50:40.487Z,12.30
2023-05-15T03:53:07.795Z,12.30
2023-05-15T03:55:35.699Z,12.30
2023-05-15T03:58:03.085Z,12.20
2023-05-15T04:00:30.333Z,12.20
2023-05-15T04:02:57.721Z,12.20
2023-05-15T04:05:25.190Z,12.10
2023-05-15T04:07:52.664Z,12.10
2023-05-15T04:10:20.051Z,12.10
2023-05-15T04:12:48.105Z,12.10
2023-05-15T04:15:22.054Z,12.10
2023-05-15T04:17:50.889Z,12.10
2023-05-15T04:20:19.363Z,12.00
2023-05-15T04:22:46.992Z,12.00
2023-05-15T04:25:15.096Z,11.90
2023-05-15T04:27:42.811Z,11.90
2023-05-15T04:30:10.607Z,11.90
2023-05-15T04:32:37.978Z,11.80
2023-05-15T04:35:06.004Z,11.80
2023-05-15T04:37:33.282Z,11.70
2023-05-15T04:40:00.551Z,11.70
2023-05-15T04:42:28.863Z,11.70
2023-05-15T04:44:57.055Z,11.60
2023-05-15T04:47:24.391Z,11.50
2023-05-15T04:49:51.696Z,11.50
2023-05-15T04:52:19.037Z,11.40
2023-05-15T04:54:48.108Z,11.50
2023-05-15T04:57:15.353Z,11.40
2023-05-15T04:59:42.595Z,11.30
2023-05-15T05:02:10.339Z,11.30
2023-05-15T05:04:37.608Z,11.20
2023-05-15T05:07:05.903Z,11.20
2023-05-15T05:09:33.201Z,11.20
2023-05-15T05:12:01.882Z,11.20
2023-05-15T05:14:29.180Z,11.20
2023-05-15T05:16:56.458Z,11.20
2023-05-15T05:19:23.737Z,11.10
2023-05-15T05:21:51.040Z,11.10
2023-05-15T05:24:18.388Z,11.00
2023-05-15T05:26:45.764Z,11.00
2023-05-15T05:29:13.040Z,11.00
2023-05-15T05:31:40.425Z,11.10
2023-05-15T05:34:09.231Z,11.10
2023-05-15T05:36:37.093Z,11.20
2023-05-15T05:39:05.669Z,11.40
2023-05-15T05:41:32.984Z,11.40
2023-05-15T05:44:00.283Z,11.50
2023-05-15T05:46:27.718Z,11.50
2023-05-15T05:48:55.019Z,11.50
2023-05-15T05:51:22.286Z,11.40
2023-05-15T05:53:49.803Z,11.40
2023-05-15T05:56:17.086Z,11.40
2023-05-15T05:58:44.374Z,11.40
2023-05-15T06:01:11.829Z,11.30
2023-05-15T06:03:39.316Z,11.40
2023-05-15T06:06:07.608Z,11.30
2023-05-15T06:08:34.817Z,11.30
2023-05-15T06:11:02.193Z,11.20
2023-05-15T06:13:29.922Z,11.20
2023-05-15T06:15:57.425Z,11.20
2023-05-15T06:18:24.772Z,11.20
2023-05-15T06:20:53.585Z,11.20
2023-05-15T06:23:22.419Z,11.20
2023-05-15T06:25:51.502Z,11.20
2023-05-15T06:28:18.735Z,11.20
2023-05-15T06:30:46.039Z,11.30
2023-05-15T06:33:13.397Z,11.20
2023-05-15T06:35:40.770Z,11.10
2023-05-15T06:38:08.052Z,11.00
2023-05-15T06:40:35.399Z,11.00
2023-05-15T06:43:02.707Z,11.00
2023-05-15T06:45:29.964Z,11.00
2023-05-15T06:47:59.890Z,11.10
2023-05-15T06:50:28.776Z,11.30
2023-05-15T06:52:56.064Z,11.20
2023-05-15T06:55:23.675Z,11.20
2023-05-15T06:57:51.535Z,11.20
2023-05-15T07:00:19.033Z,11.20
2023-05-15T07:02:46.404Z,11.20
2023-05-15T07:05:14.000Z,11.30
2023-05-15T07:07:41.691Z,11.30
2023-05-15T07:10:09.618Z,11.30
2023-05-15T07:12:37.527Z,11.40
2023-05-15T07:15:05.504Z,11.40
2023-05-15T07:17:33.635Z,11.50
2023-05-15T07:20:01.246Z,11.60
2023-05-15T07:22:32.777Z,11.60
2023-05-15T07:25:01.870Z,11.60
2023-05-15T07:27:29.119Z,11.60
2023-05-15T07:29:56.365Z,11.60
2023-05-15T07:32:23.772Z,11.70
2023-05-15T07:34:51.184Z,11.70
2023-05-15T07:37:19.076Z,11.70
2023-05-15T07:39:46.692Z,11.90
2023-05-15T07:42:14.059Z,12.00
2023-05-15T07:44:43.080Z,12.00
2023-05-15T07:47:11.951Z,12.00
2023-05-15T07:49:39.255Z,12.10
2023-05-15T07:52:06.587Z,12.10
2023-05-15T07:54:33.980Z,12.10
2023-05-15T07:57:02.015Z,12.00
2023-05-15T07:59:31.019Z,12.00
2023-05-15T08:01:58.457Z,12.10
2023-05-15T08:04:25.821Z,12.00
2023-05-15T08:06:53.171Z,12.00
2023-05-15T08:09:20.429Z,11.90
2023-05-15T08:11:48.095Z,11.90
2023-05-15T08:14:15.588Z,11.90
2023-05-15T08:16:43.067Z,12.10
2023-05-15T08:19:10.721Z,12.20
2023-05-15T08:21:38.185Z,12.30
2023-05-15T08:24:05.780Z,12.30
2023-05-15T08:26:33.313Z,12.30
2023-05-15T08:29:00.775Z,12.30
2023-05-15T08:31:28.237Z,12.40
2023-05-15T08:33:55.704Z,12.40
2023-05-15T08:36:23.255Z,12.40
2023-05-15T08:38:50.721Z,12.40
2023-05-15T08:41:38.758Z,12.40
2023-05-15T08:44:08.561Z,12.40
2023-05-15T08:46:36.112Z,12.40
2023-05-15T08:49:06.832Z,12.40
2023-05-15T08:51:34.543Z,12.50
2023-05-15T08:54:01.917Z,12.60
2023-05-15T08:56:29.259Z,12.60
2023-05-15T08:58:56.600Z,12.50
2023-05-15T09:01:24.076Z,12.50
2023-05-15T09:03:51.992Z,12.60
2023-05-15T09:06:19.352Z,12.70
2023-05-15T09:08:46.809Z,12.60
2023-05-15T09:11:14.297Z,12.60
2023-05-15T09:13:41.591Z,12.60
2023-05-15T09:16:08.937Z,12.60
2023-05-15T09:18:37.653Z,12.70
2023-05-15T09:21:25.069Z,12.70
2023-05-15T09:23:55.829Z,12.70
2023-05-15T09:26:23.582Z,12.70
2023-05-15T09:28:51.031Z,12.70
2023-05-15T09:31:19.559Z,12.70
2023-05-15T09:33:46.915Z,12.70
2023-05-15T09:36:21.303Z,12.70
2023-05-15T09:38:49.776Z,12.70
2023-05-15T09:41:24.284Z,12.70
2023-05-15T09:43:51.517Z,12.70
2023-05-15T09:46:18.817Z,12.80
2023-05-15T09:48:46.403Z,12.80
2023-05-15T09:51:17.918Z,13.10
2023-05-15T09:53:49.936Z,13.10
2023-05-15T09:56:17.587Z,13.30
2023-05-15T09:58:57.843Z,13.50
2023-05-15T10:01:25.861Z,13.50
2023-05-15T10:03:59.815Z,13.60
2023-05-15T10:06:27.183Z,13.50
2023-05-15T10:08:54.629Z,13.50
2023-05-15T10:11:23.834Z,13.60
2023-05-15T10:13:51.155Z,13.50
2023-05-15T10:16:19.829Z,13.60
2023-05-15T10:18:47.548Z,13.50
2023-05-15T10:21:18.209Z,13.70
2023-05-15T10:23:46.638Z,13.90
2023-05-15T10:26:20.189Z,13.90
2023-05-15T10:28:47.764Z,13.80
2023-05-15T10:31:15.916Z,13.90
2023-05-15T10:33:43.691Z,13.90
2023-05-15T10:36:11.566Z,13.90
2023-05-15T10:38:39.481Z,14.10
2023-05-15T10:41:16.530Z,14.20
2023-05-15T10:43:45.899Z,14.50
2023-05-15T10:46:14.934Z,14.50
2023-05-15T10:48:42.536Z,14.40
2023-05-15T10:51:16.935Z,14.40
2023-05-15T10:53:47.331Z,14.00
2023-05-15T10:56:16.800Z,14.50
2023-05-15T10:58:51.081Z,14.50
2023-05-15T11:01:34.981Z,14.70
2023-05-15T11:04:08.443Z,14.80
2023-05-15T11:06:36.533Z,15.00
2023-05-15T11:09:22.039Z,15.10
2023-05-15T11:11:52.443Z,15.30
2023-05-15T11:14:19.832Z,15.00
2023-05-15T11:16:53.677Z,15.00
2023-05-15T11:19:23.940Z,14.90
2023-05-15T11:21:57.012Z,14.90
2023-05-15T11:24:46.786Z,14.90
2023-05-15T11:27:17.373Z,14.60
2023-05-15T11:30:03.149Z,14.50
2023-05-15T11:32:43.253Z,14.60
2023-05-15T11:35:11.493Z,14.60
2023-05-15T11:37:42.594Z,14.50
2023-05-15T11:40:14.411Z,14.40
2023-05-15T11:42:41.952Z,14.80
2023-05-15T11:45:10.000Z,15.10
2023-05-15T11:47:37.580Z,15.30
2023-05-15T11:50:06.661Z,15.50
2023-05-15T11:52:34.701Z,15.20
2023-05-15T11:55:02.724Z,14.80
2023-05-15T11:57:30.115Z,14.70
2023-05-15T11:59:57.428Z,15.00
2023-05-15T12:02:24.765Z,15.20
2023-05-15T12:04:52.046Z,15.30
2023-05-15T12:07:19.366Z,15.30
2023-05-15T12:09:50.217Z,15.00
2023-05-15T12:12:17.579Z,14.80
2023-05-15T12:14:44.820Z,14.90
2023-05-15T12:17:12.172Z,15.40
2023-05-15T12:19:39.581Z,16.00
2023-05-15T12:22:08.417Z,16.50
2023-05-15T12:24:39.678Z,16.60
2023-05-15T12:27:07.810Z,16.50
2023-05-15T12:29:35.220Z,16.50
2023-05-15T12:32:02.662Z,16.50
2023-05-15T12:34:29.941Z,16.50
2023-05-15T12:36:59.768Z,16.60
2023-05-15T12:39:27.263Z,16.50
2023-05-15T12:41:57.374Z,16.60
2023-05-15T12:44:26.185Z,16.80
2023-05-15T12:46:54.632Z,17.10
2023-05-15T12:49:22.779Z,16.90
2023-05-15T12:51:50.252Z,16.50
2023-05-15T12:54:18.301Z,16.50
2023-05-15T12:56:45.998Z,16.50
2023-05-15T12:59:13.629Z,16.50
2023-05-15T13:01:42.444Z,16.20
2023-05-15T13:04:10.293Z,16.20
2023-05-15T13:06:46.616Z,16.00
2023-05-15T13:09:14.511Z,16.30
2023-05-15T13:11:45.191Z,16.80
2023-05-15T13:14:17.328Z,17.50
2023-05-15T13:16:46.480Z,17.90
2023-05-15T13:19:14.237Z,18.20
2023-05-15T13:21:41.544Z,17.50
2023-05-15T13:24:10.735Z,17.00
2023-05-15T13:26:38.095Z,17.00
2023-05-15T13:29:05.345Z,17.50
2023-05-15T13:31:32.741Z,17.80
2023-05-15T13:34:00.050Z,17.50
2023-05-15T13:36:27.422Z,17.10
2023-05-15T13:38:54.686Z,17.00
2023-05-15T13:41:22.546Z,16.90
2023-05-15T13:43:49.831Z,16.60
2023-05-15T13:46:17.132Z,16.30
2023-05-15T13:48:44.458Z,16.70
2023-05-15T13:51:11.699Z,17.00
2023-05-15T13:53:39.111Z,16.70
2023-05-15T13:56:06.573Z,16.20
2023-05-15T13:58:33.917Z,15.80
2023-05-15T14:01:03.506Z,15.50
2023-05-15T14:03:31.141Z,15.30
2023-05-15T14:05:58.446Z,15.30
2023-05-15T14:08:25.696Z,15.30
2023-05-15T14:10:52.966Z,15.40
2023-05-15T14:13:20.338Z,16.20
2023-05-15T14:15:47.679Z,17.20
2023-05-15T14:18:15.084Z,18.10
2023-05-15T14:20:42.377Z,17.70
2023-05-15T14:23:09.629Z,17.10
2023-05-15T14:25:36.917Z,16.60
2023-05-15T14:28:04.200Z,16.20
2023-05-15T14:30:34.707Z,15.80
2023-05-15T14:33:02.105Z,15.30
2023-05-15T14:35:29.493Z,15.10
2023-05-15T14:37:57.318Z,14.90
2023-05-15T14:40:24.718Z,14.90
2023-05-15T14:42:52.100Z,15.00
2023-05-15T14:45:19.413Z,15.20
2023-05-15T14:47:46.712Z,16.00
2023-05-15T14:50:14.782Z,16.50
2023-05-15T14:52:42.123Z,16.50
2023-05-15T14:55:10.096Z,16.40
2023-05-15T14:57:38.236Z,16.00
2023-05-15T15:00:06.889Z,15.90
2023-05-15T15:02:34.631Z,15.90
2023-05-15T15:05:02.078Z,16.00
2023-05-15T15:07:30.868Z,15.90
2023-05-15T15:09:58.217Z,15.90
2023-05-15T15:12:26.827Z,15.80
2023-05-15T15:14:54.058Z,16.00
2023-05-15T15:17:21.319Z,16.20
2023-05-15T15:19:53.326Z,16.40
2023-05-15T15:22:20.687Z,16.40
2023-05-15T15:24:47.935Z,16.20
2023-05-15T15:27:15.291Z,15.70
2023-05-15T15:29:42.562Z,15.50
2023-05-15T15:32:10.036Z,15.30
2023-05-15T15:34:37.361Z,15.20
2023-05-15T15:37:04.645Z,15.20
2023-05-15T15:39:32.551Z,15.20
2023-05-15T15:41:59.658Z,15.30
2023-05-15T15:44:26.896Z,15.30
2023-05-15T15:46:54.149Z,15.40
2023-05-15T15:49:21.381Z,15.30
2023-05-15T15:51:48.619Z,15.30
2023-05-15T15:54:15.923Z,15.20
2023-05-15T15:56:43.169Z,15.30
2023-05-15T15:59:10.563Z,15.30
2023-05-15T16:01:38.073Z,15.30
2023-05-15T16:04:05.468Z,15.40
2023-05-15T16:06:33.168Z,15.40
2023-05-15T16:09:00.565Z,15.40
2023-05-15T16:11:28.459Z,15.40
2023-05-15T16:13:56.138Z,15.40
2023-05-15T16:16:23.405Z,15.40
2023-05-15T16:18:50.777Z,15.50
2023-05-15T16:21:18.229Z,15.40
2023-05-15T16:23:45.639Z,15.40
2023-05-15T16:26:12.906Z,15.40
2023-05-15T16:28:40.358Z,15.30
2023-05-15T16:31:08.110Z,15.30
2023-05-15T16:33:35.918Z,15.30
2023-05-15T16:36:05.235Z,15.20
2023-05-15T16:38:32.546Z,15.00
2023-05-15T16:41:00.216Z,15.00
2023-05-15T16:43:27.641Z,15.00
2023-05-15T16:45:55.036Z,14.80
2023-05-15T16:48:22.998Z,14.80
2023-05-15T16:50:50.542Z,14.70
2023-05-15T16:53:18.784Z,14.70
2023-05-15T16:55:47.294Z,14.80
2023-05-15T16:58:15.848Z,14.80
2023-05-15T17:00:43.875Z,14.80
2023-05-15T17:03:12.871Z,14.80
2023-05-15T17:05:40.700Z,14.90
2023-05-15T17:08:07.977Z,14.90
2023-05-15T17:10:35.223Z,14.80
2023-05-15T17:13:02.510Z,14.70
2023-05-15T17:15:29.783Z,14.70
2023-05-15T17:17:57.036Z,14.80
2023-05-15T17:20:24.939Z,14.80
2023-05-15T17:22:52.212Z,14.80
2023-05-15T17:25:19.527Z,14.80
2023-05-15T17:27:46.830Z,14.80
2023-05-15T17:30:14.253Z,14.70
2023-05-15T17:32:41.672Z,14.70
2023-05-15T17:35:10.217Z,14.70
2023-05-15T17:37:38.019Z,14.60
2023-05-15T17:40:05.807Z,14.60
2023-05-15T17:42:33.304Z,14.50
2023-05-15T17:45:00.715Z,14.50
2023-05-15T17:47:28.068Z,14.50
2023-05-15T17:49:55.557Z,14.40
2023-05-15T17:52:22.839Z,14.40
2023-05-15T17:54:50.122Z,14.50
2023-05-15T17:57:17.437Z,14.40
2023-05-15T17:59:44.729Z,14.40
2023-05-15T18:02:12.237Z,14.30
2023-05-15T18:04:39.524Z,14.30
2023-05-15T18:07:06.827Z,14.20
2023-05-15T18:09:34.133Z,14.20
2023-05-15T18:12:01.360Z,14.20
2023-05-15T18:14:28.675Z,14.30
2023-05-15T18:16:56.309Z,14.30
2023-05-15T18:19:23.633Z,14.30
2023-05-15T18:21:52.882Z,14.30
2023-05-15T18:24:20.295Z,14.30
2023-05-15T18:26:47.567Z,14.20
2023-05-15T18:29:15.446Z,14.30
2023-05-15T18:31:42.866Z,14.20
2023-05-15T18:34:10.430Z,14.30
2023-05-15T18:36:37.974Z,14.30
2023-05-15T18:39:05.428Z,14.30
2023-05-15T18:41:32.707Z,14.30
2023-05-15T18:44:00.312Z,14.30
2023-05-15T18:46:31.597Z,14.20
2023-05-15T18:48:59.853Z,14.10
2023-05-15T18:51:27.331Z,14.10
2023-05-15T18:53:54.693Z,14.00
2023-05-15T18:56:22.314Z,14.00
2023-05-15T18:58:49.751Z,14.00
2023-05-15T19:01:17.148Z,13.90
2023-05-15T19:03:44.682Z,13.90
2023-05-15T19:06:19.720Z,13.90
2023-05-15T19:08:47.808Z,13.80
2023-05-15T19:11:15.664Z,13.80
2023-05-15T19:13:42.966Z,13.70
2023-05-15T19:16:10.384Z,13.70
2023-05-15T19:18:37.751Z,13.60
2023-05-15T19:21:05.051Z,13.60
2023-05-15T19:23:32.842Z,13.60
2023-05-15T19:26:00.144Z,13.50
2023-05-15T19:28:27.935Z,13.40
2023-05-15T19:30:55.317Z,13.40
2023-05-15T19:33:23.885Z,13.30
2023-05-15T19:35:52.199Z,13.30
2023-05-15T19:38:19.596Z,13.20
2023-05-15T19:40:46.919Z,13.20
2023-05-15T19:43:14.818Z,13.20
2023-05-15T19:45:42.617Z,13.20
2023-05-15T19:48:10.140Z,13.10
2023-05-15T19:50:40.632Z,13.10
2023-05-15T19:53:08.177Z,13.10
2023-05-15T19:55:35.949Z,13.10
2023-05-15T19:58:03.380Z,13.00
2023-05-15T20:00:30.848Z,13.00
2023-05-15T20:02:58.389Z,13.00
2023-05-15T20:05:25.730Z,12.90
2023-05-15T20:07:53.326Z,12.90
2023-05-15T20:10:20.968Z,12.90
2023-05-15T20:12:48.402Z,12.90
2023-05-15T20:15:15.940Z,12.90
2023-05-15T20:17:43.623Z,12.90
2023-05-15T20:20:12.080Z,12.80
2023-05-15T20:22:41.347Z,12.80
2023-05-15T20:25:09.010Z,12.80
2023-05-15T20:27:36.861Z,12.70
2023-05-15T20:30:04.638Z,12.80
2023-05-15T20:32:32.117Z,12.70
2023-05-15T20:35:00.535Z,12.70
2023-05-15T20:37:29.063Z,12.70
2023-05-15T20:39:57.560Z,12.70
2023-05-15T20:42:26.862Z,12.70
2023-05-15T20:44:54.144Z,12.70
2023-05-15T20:47:21.539Z,12.70
2023-05-15T20:49:49.307Z,12.60
2023-05-15T20:52:16.610Z,12.70
2023-05-15T20:54:44.098Z,12.60
2023-05-15T20:57:11.327Z,12.60
2023-05-15T20:59:38.566Z,12.50
2023-05-15T21:02:05.836Z,12.50
2023-05-15T21:04:33.195Z,12.50
2023-05-15T21:07:00.521Z,12.40
2023-05-15T21:09:27.889Z,12.50
2023-05-15T21:11:55.311Z,12.50
2023-05-15T21:14:22.583Z,12.40
2023-05-15T21:16:49.859Z,12.40
2023-05-15T21:19:17.220Z,12.40
2023-05-15T21:21:44.612Z,12.30
2023-05-15T21:24:11.948Z,12.30
2023-05-15T21:26:39.352Z,12.20
2023-05-15T21:29:07.071Z,12.20
2023-05-15T21:31:34.437Z,12.20
2023-05-15T21:34:01.804Z,12.20
2023-05-15T21:36:29.181Z,12.10
2023-05-15T21:38:56.483Z,12.10
2023-05-15T21:41:23.742Z,12.10
2023-05-15T21:43:50.972Z,12.10
2023-05-15T21:46:18.328Z,12.10
2023-05-15T21:48:46.337Z,12.10
2023-05-15T21:51:13.663Z,12.00
2023-05-15T21:53:41.694Z,12.00
2023-05-15T21:56:09.022Z,12.00
2023-05-15T21:58:36.295Z,11.90
2023-05-15T22:01:03.650Z,12.00
2023-05-15T22:03:31.140Z,11.90
2023-05-15T22:05:58.626Z,11.90
2023-05-15T22:08:26.878Z,11.90
2023-05-15T22:10:54.344Z,11.80
2023-05-15T22:13:21.655Z,11.80
2023-05-15T22:15:49.002Z,11.80
2023-05-15T22:18:16.296Z,11.80
2023-05-15T22:20:45.058Z,11.80
2023-05-15T22:23:12.413Z,11.60
2023-05-15T22:25:39.732Z,11.60
2023-05-15T22:28:07.158Z,11.60
2023-05-15T22:30:34.388Z,11.60
2023-05-15T22:33:01.951Z,11.50
2023-05-15T22:35:30.029Z,11.50
2023-05-15T22:37:57.395Z,11.50
2023-05-15T22:40:26.299Z,11.40
2023-05-15T22:42:53.933Z,11.40
2023-05-15T22:45:21.658Z,11.30
2023-05-15T22:47:50.205Z,11.30
2023-05-15T22:50:18.428Z,11.30
2023-05-15T22:52:45.840Z,11.30
2023-05-15T22:55:13.156Z,11.20
2023-05-15T22:57:40.475Z,11.20
2023-05-15T23:00:08.695Z,11.20
2023-05-15T23:02:42.598Z,11.20
2023-05-15T23:05:12.339Z,11.20
2023-05-15T23:07:39.574Z,11.10
2023-05-15T23:10:07.179Z,11.10
2023-05-15T23:12:34.582Z,11.20
2023-05-15T23:15:01.852Z,11.20
2023-05-15T23:17:29.719Z,11.20
2023-05-15T23:19:57.805Z,11.20
2023-05-15T23:22:26.509Z,11.30
2023-05-15T23:24:55.379Z,11.30
2023-05-15T23:27:23.244Z,11.30
2023-05-15T23:29:51.498Z,11.20
2023-05-15T23:32:19.257Z,11.30
2023-05-15T23:34:46.954Z,11.30
2023-05-15T23:37:14.327Z,11.30
2023-05-15T23:39:42.142Z,11.30
2023-05-15T23:42:11.289Z,11.30
2023-05-15T23:44:38.589Z,11.30
2023-05-15T23:47:06.623Z,11.30
2023-05-15T23:49:34.020Z,11.30
2023-05-15T23:52:01.592Z,11.30
2023-05-15T23:54:29.499Z,11.20
2023-05-15T23:56:56.833Z,11.20
2023-05-15T23:59:24.140Z,11.20
